This is the latest recevied weather packets stored in our database for station/object AA7DG. If no packets are shown the sender has not sent any weather packets the latest 10 day(s).
| Time | Temp. | Humidity | Pressure | Rain* | Wind** | Luminosity | Snow |
|---|---|---|---|---|---|---|---|
| 1778005502 | 22.22° C | 28% | 1014.2 hPa | - | - | - | - |
| 1778004901 | 22.22° C | 29% | 1014.2 hPa | - | - | - | - |
| 1778004300 | 21.11° C | 29% | 1014.2 hPa | - | - | - | - |
| 1778003401 | 21.11° C | 29% | 1014.2 hPa | - | - | - | - |
| 1778002501 | 21.11° C | 30% | 1014.4 hPa | - | - | - | - |
| 1778001001 | 20.56° C | 33% | 1014.6 hPa | - | - | - | - |
| 1777998001 | 17.22° C | 42% | 1014.9 hPa | - | - | - | - |
| 1777997408 | 17.22° C | 42% | 1014.9 hPa | - | - | - | - |
| 1777996806 | 17.22° C | 43% | 1014.9 hPa | - | - | - | - |
| 1777991406 | 11.67° C | 75% | 1014.9 hPa | - | - | - | - |
| 1777989611 | 9.44° C | 83% | 1014.6 hPa | - | - | - | - |
| 1777987801 | 8.33° C | 84% | 1014.2 hPa | - | - | - | - |
| 1777986917 | 7.78° C | 84% | 1013.9 hPa | - | - | - | - |
| 1777983306 | 8.33° C | 82% | 1013.2 hPa | - | - | - | - |
| 1777980301 | 8.89° C | 79% | 1012.9 hPa | - | - | - | - |
| 1777979709 | 9.44° C | 78% | 1012.9 hPa | - | - | - | - |
| 1777979402 | 9.44° C | 78% | 1012.9 hPa | - | - | - | - |
| 1777977008 | 10° C | 77% | 1012.9 hPa | - | - | - | - |
| 1777976410 | 10° C | 77% | 1012.5 hPa | - | - | - | - |
| 1777975811 | 10° C | 76% | 1012.5 hPa | - | - | - | - |
| 1777973402 | 10.56° C | 73% | 1012.2 hPa | - | - | - | - |
| 1777970706 | 11.67° C | 71% | 1011.9 hPa | - | - | - | - |
| 1777968002 | 12.22° C | 68% | 1011.5 hPa | - | - | - | - |
| 1777967101 | 12.22° C | 66% | 1011.2 hPa | - | - | - | - |
| 1777962601 | 13.89° C | 61% | 1010.8 hPa | - | - | - | - |
* Rain since midnight (hover to see other rain measurements)
** Current wind speed in m/s (hover to see current wind gust speed)